createdAt,value
2018-12-10T00:02:02.845Z,2.82
2018-12-10T00:04:30.207Z,2.85
2018-12-10T00:06:57.564Z,2.81
2018-12-10T00:09:24.967Z,2.80
2018-12-10T00:11:52.337Z,2.78
2018-12-10T00:14:19.725Z,2.77
2018-12-10T00:16:47.093Z,2.78
2018-12-10T00:19:14.554Z,2.72
2018-12-10T00:21:41.943Z,2.64
2018-12-10T00:24:09.365Z,2.50
2018-12-10T00:26:43.804Z,2.49
2018-12-10T00:29:11.204Z,2.53
2018-12-10T00:31:38.577Z,2.49
2018-12-10T00:34:05.919Z,2.55
2018-12-10T00:36:33.296Z,2.56
2018-12-10T00:39:00.651Z,2.56
2018-12-10T00:41:29.041Z,2.60
2018-12-10T00:43:56.418Z,2.58
2018-12-10T00:46:23.865Z,2.54
2018-12-10T00:48:51.238Z,2.54
2018-12-10T00:51:18.594Z,2.56
2018-12-10T00:53:46.001Z,2.53
2018-12-10T00:56:13.380Z,2.53
2018-12-10T00:58:40.775Z,2.53
2018-12-10T01:01:08.122Z,2.50
2018-12-10T01:03:35.472Z,2.50
2018-12-10T01:06:02.853Z,2.50
2018-12-10T01:08:30.215Z,2.49
2018-12-10T01:10:57.556Z,2.48
2018-12-10T01:13:24.935Z,2.48
2018-12-10T01:15:52.358Z,2.49
2018-12-10T01:18:19.744Z,2.48
2018-12-10T01:20:47.068Z,2.48
2018-12-10T01:23:15.028Z,2.45
2018-12-10T01:25:42.343Z,2.42
2018-12-10T01:28:09.780Z,2.40
2018-12-10T01:30:37.131Z,2.35
2018-12-10T01:33:04.505Z,2.36
2018-12-10T01:35:32.358Z,2.37
2018-12-10T01:37:59.693Z,2.39
2018-12-10T01:40:27.098Z,2.41
2018-12-10T01:42:54.480Z,2.35
2018-12-10T01:45:21.839Z,2.33
2018-12-10T01:47:50.838Z,2.26
2018-12-10T01:50:18.281Z,2.26
2018-12-10T01:52:45.640Z,2.26
2018-12-10T01:55:13.006Z,2.25
2018-12-10T01:57:40.376Z,2.19
2018-12-10T02:00:07.986Z,2.13
2018-12-10T02:02:36.165Z,2.10
2018-12-10T02:05:03.726Z,2.09
2018-12-10T02:07:31.096Z,2.03
2018-12-10T02:09:58.431Z,1.94
2018-12-10T02:12:25.804Z,1.67
2018-12-10T02:14:53.163Z,1.56
2018-12-10T02:17:20.655Z,1.57
2018-12-10T02:19:48.005Z,1.61
2018-12-10T02:22:15.496Z,1.61
2018-12-10T02:24:42.871Z,1.57
2018-12-10T02:27:10.232Z,1.52
2018-12-10T02:29:38.108Z,1.49
2018-12-10T02:32:14.947Z,1.55
2018-12-10T02:34:42.278Z,1.53
2018-12-10T02:37:10.641Z,1.59
2018-12-10T02:39:38.712Z,1.59
2018-12-10T02:42:06.130Z,1.62
2018-12-10T02:44:33.499Z,1.65
2018-12-10T02:47:00.905Z,1.69
2018-12-10T02:49:28.752Z,1.70
2018-12-10T02:51:56.756Z,1.72
2018-12-10T02:54:24.119Z,1.69
2018-12-10T02:56:51.483Z,1.66
2018-12-10T02:59:18.861Z,1.68
2018-12-10T03:01:46.269Z,1.70
2018-12-10T03:04:13.640Z,1.69
2018-12-10T03:06:41.030Z,1.62
2018-12-10T03:09:08.398Z,1.67
2018-12-10T03:11:35.846Z,1.65
2018-12-10T03:14:03.423Z,1.64
2018-12-10T03:16:30.874Z,1.59
2018-12-10T03:18:58.257Z,1.62
2018-12-10T03:21:25.724Z,1.63
2018-12-10T03:23:53.135Z,1.60
2018-12-10T03:26:20.507Z,1.56
2018-12-10T03:28:47.932Z,1.54
2018-12-10T03:31:15.289Z,1.47
2018-12-10T03:33:42.742Z,1.44
2018-12-10T03:36:10.177Z,1.41
2018-12-10T03:38:37.512Z,1.45
2018-12-10T03:41:05.014Z,1.45
2018-12-10T03:43:32.436Z,1.48
2018-12-10T03:45:59.910Z,1.48
2018-12-10T03:48:27.330Z,1.43
2018-12-10T03:50:54.775Z,1.44
2018-12-10T03:53:22.156Z,1.45
2018-12-10T03:55:49.514Z,1.45
2018-12-10T03:58:16.854Z,1.40
2018-12-10T04:00:44.266Z,1.41
2018-12-10T04:03:11.623Z,1.47
2018-12-10T04:05:39.041Z,1.40
2018-12-10T04:08:06.421Z,1.42
2018-12-10T04:10:33.770Z,1.36
2018-12-10T04:13:01.312Z,1.34
2018-12-10T04:15:30.446Z,1.26
2018-12-10T04:17:57.807Z,1.26
2018-12-10T04:20:25.209Z,1.24
2018-12-10T04:22:52.618Z,1.24
2018-12-10T04:25:20.078Z,1.24
2018-12-10T04:27:47.437Z,1.24
2018-12-10T04:30:14.804Z,1.22
2018-12-10T04:32:42.195Z,1.23
2018-12-10T04:35:09.624Z,1.27
2018-12-10T04:37:36.994Z,1.29
2018-12-10T04:40:04.552Z,1.30
2018-12-10T04:42:31.942Z,1.30
2018-12-10T04:44:59.342Z,1.33
2018-12-10T04:47:26.723Z,1.31
2018-12-10T04:49:54.060Z,1.28
2018-12-10T04:52:21.518Z,1.32
2018-12-10T04:54:49.012Z,1.26
2018-12-10T04:57:16.445Z,1.28
2018-12-10T04:59:43.967Z,1.24
2018-12-10T05:02:11.313Z,1.24
2018-12-10T05:04:38.705Z,1.28
2018-12-10T05:07:06.068Z,1.29
2018-12-10T05:09:33.476Z,1.25
2018-12-10T05:12:00.851Z,1.26
2018-12-10T05:14:28.162Z,1.20
2018-12-10T05:16:55.586Z,1.14
2018-12-10T05:19:22.988Z,1.14
2018-12-10T05:21:50.362Z,1.14
2018-12-10T05:24:17.778Z,1.10
2018-12-10T05:26:45.148Z,1.09
2018-12-10T05:29:12.521Z,1.12
2018-12-10T05:31:39.902Z,1.14
2018-12-10T05:34:07.296Z,1.16
2018-12-10T05:36:35.009Z,1.13
2018-12-10T05:39:03.428Z,0.99
2018-12-10T05:41:30.821Z,0.84
2018-12-10T05:43:58.219Z,0.79
2018-12-10T05:46:25.582Z,0.81
2018-12-10T05:48:53.420Z,0.67
2018-12-10T05:51:20.804Z,0.59
2018-12-10T05:53:49.173Z,0.58
2018-12-10T05:56:16.591Z,0.71
2018-12-10T05:58:44.083Z,0.70
2018-12-10T06:01:11.487Z,0.68
2018-12-10T06:03:38.819Z,0.72
2018-12-10T06:06:07.496Z,0.64
2018-12-10T06:08:34.968Z,0.63
2018-12-10T06:11:02.906Z,0.64
2018-12-10T06:13:30.297Z,0.69
2018-12-10T06:15:58.179Z,0.59
2018-12-10T06:18:25.511Z,0.45
2018-12-10T06:20:52.980Z,0.35
2018-12-10T06:23:20.386Z,0.20
2018-12-10T06:25:47.801Z,0.12
2018-12-10T06:28:15.163Z,0.12
2018-12-10T06:30:42.519Z,0.07
2018-12-10T06:33:09.953Z,0.01
2018-12-10T06:35:37.888Z,-0.01
2018-12-10T06:38:05.973Z,-0.01
2018-12-10T06:40:33.498Z,-0.07
2018-12-10T06:43:00.959Z,-0.13
2018-12-10T06:45:28.353Z,-0.08
2018-12-10T06:50:21.913Z,-0.07
2018-12-10T06:52:49.273Z,0.01
2018-12-10T06:55:16.671Z,-0.05
2018-12-10T06:57:44.131Z,-0.02
2018-12-10T07:00:12.491Z,0.06
2018-12-10T07:02:39.945Z,0.10
2018-12-10T07:05:07.383Z,0.16
2018-12-10T07:07:34.741Z,0.18
2018-12-10T07:10:02.170Z,0.17
2018-12-10T07:12:29.525Z,0.15
2018-12-10T07:14:56.973Z,0.20
2018-12-10T07:17:24.337Z,0.26
2018-12-10T07:19:52.404Z,0.26
2018-12-10T07:22:19.810Z,0.26
2018-12-10T07:24:47.268Z,0.28
2018-12-10T07:27:14.691Z,0.40
2018-12-10T07:29:42.812Z,0.43
2018-12-10T07:32:10.906Z,0.41
2018-12-10T07:34:38.344Z,0.38
2018-12-10T07:37:05.727Z,0.37
2018-12-10T07:39:33.106Z,0.39
2018-12-10T07:42:00.516Z,0.40
2018-12-10T07:44:27.978Z,0.35
2018-12-10T07:46:55.444Z,0.43
2018-12-10T07:49:22.799Z,0.43
2018-12-10T07:51:50.211Z,0.41
2018-12-10T07:54:17.625Z,0.39
2018-12-10T07:56:45.011Z,0.40
2018-12-10T07:59:12.418Z,0.44
2018-12-10T08:01:39.777Z,0.40
2018-12-10T08:04:07.198Z,0.49
2018-12-10T08:06:34.583Z,0.45
2018-12-10T08:09:02.004Z,0.49
2018-12-10T08:11:29.358Z,0.54
2018-12-10T08:13:56.826Z,0.55
2018-12-10T08:16:24.211Z,0.58
2018-12-10T08:18:51.767Z,0.62
2018-12-10T08:21:19.220Z,0.62
2018-12-10T08:23:46.618Z,0.66
2018-12-10T08:26:14.117Z,0.73
2018-12-10T08:28:41.492Z,0.78
2018-12-10T08:31:08.876Z,0.78
2018-12-10T08:33:36.436Z,0.81
2018-12-10T08:36:03.995Z,0.82
2018-12-10T08:38:31.911Z,0.82
2018-12-10T08:40:59.326Z,0.79
2018-12-10T08:43:26.697Z,0.70
2018-12-10T08:45:54.019Z,0.73
2018-12-10T08:48:21.433Z,0.76
2018-12-10T08:50:48.888Z,0.89
2018-12-10T08:53:16.267Z,0.88
2018-12-10T08:55:43.672Z,0.83
2018-12-10T08:58:11.169Z,0.77
2018-12-10T09:00:38.553Z,0.83
2018-12-10T09:03:05.934Z,0.83
2018-12-10T09:05:33.368Z,0.78
2018-12-10T09:08:00.767Z,0.74
2018-12-10T09:10:28.146Z,0.78
2018-12-10T09:12:56.164Z,0.78
2018-12-10T09:15:23.685Z,0.79
2018-12-10T09:17:51.047Z,0.83
2018-12-10T09:20:18.415Z,0.87
2018-12-10T09:29:40.062Z,1.08
2018-12-10T09:32:07.652Z,1.16
2018-12-10T09:34:35.026Z,1.15
2018-12-10T09:37:02.626Z,1.16
2018-12-10T09:39:30.259Z,1.18
2018-12-10T09:41:57.866Z,1.22
2018-12-10T09:44:25.252Z,1.39
2018-12-10T09:46:58.952Z,1.37
2018-12-10T09:49:22.047Z,1.46
2018-12-10T09:51:49.523Z,1.45
2018-12-10T09:54:16.905Z,1.48
2018-12-10T09:56:44.290Z,1.53
2018-12-10T09:59:12.363Z,1.58
2018-12-10T10:01:39.825Z,1.61
2018-12-10T10:04:07.896Z,1.60
2018-12-10T10:06:35.942Z,1.52
2018-12-10T10:09:05.414Z,1.50
2018-12-10T10:11:32.797Z,1.48
2018-12-10T10:14:00.223Z,1.47
2018-12-10T10:16:27.811Z,1.51
2018-12-10T10:18:55.198Z,1.56
2018-12-10T10:21:23.228Z,1.75
2018-12-10T10:23:51.294Z,1.81
2018-12-10T10:26:18.668Z,1.90
2018-12-10T10:28:46.628Z,2.07
2018-12-10T10:31:14.068Z,2.16
2018-12-10T10:33:41.432Z,2.11
2018-12-10T10:36:08.817Z,2.08
2018-12-10T10:38:36.299Z,2.16
2018-12-10T10:41:04.431Z,2.11
2018-12-10T10:46:11.304Z,1.90
2018-12-10T10:48:39.376Z,1.92
2018-12-10T10:51:06.803Z,2.13
2018-12-10T10:53:34.200Z,2.44
2018-12-10T10:56:01.726Z,2.58
2018-12-10T10:58:29.337Z,2.52
2018-12-10T11:01:02.453Z,2.55
2018-12-10T11:03:35.486Z,2.39
2018-12-10T11:06:02.923Z,2.32
2018-12-10T11:08:30.283Z,2.17
2018-12-10T11:10:57.676Z,2.11
2018-12-10T11:13:25.057Z,2.17
2018-12-10T11:15:52.431Z,2.10
2018-12-10T11:18:19.810Z,2.02
2018-12-10T11:20:47.982Z,1.93
2018-12-10T11:23:15.549Z,1.86
2018-12-10T11:25:43.004Z,1.79
2018-12-10T11:28:10.388Z,1.83
2018-12-10T11:30:37.749Z,1.95
2018-12-10T11:33:05.128Z,2.03
2018-12-10T11:35:33.175Z,2.15
2018-12-10T11:38:00.585Z,2.21
2018-12-10T11:40:28.652Z,2.21
2018-12-10T11:42:56.047Z,2.14
2018-12-10T11:45:23.446Z,2.07
2018-12-10T11:47:50.819Z,2.10
2018-12-10T11:50:18.337Z,2.14
2018-12-10T11:52:46.028Z,2.07
2018-12-10T11:55:13.467Z,2.09
2018-12-10T11:57:40.888Z,2.14
2018-12-10T12:00:09.956Z,2.15
2018-12-10T12:02:38.059Z,2.11
2018-12-10T12:05:05.766Z,2.02
2018-12-10T12:10:10.704Z,1.76
2018-12-10T12:12:38.094Z,1.64
2018-12-10T12:15:06.348Z,1.53
2018-12-10T12:17:33.764Z,1.44
2018-12-10T12:20:01.161Z,1.48
2018-12-10T12:22:28.674Z,1.62
2018-12-10T12:24:56.168Z,1.85
2018-12-10T12:27:23.907Z,2.06
2018-12-10T12:29:51.477Z,2.14
2018-12-10T12:32:18.892Z,2.19
2018-12-10T12:34:47.677Z,2.02
2018-12-10T12:37:16.203Z,1.94
2018-12-10T12:39:43.554Z,1.87
2018-12-10T12:42:11.003Z,1.91
2018-12-10T12:44:38.387Z,1.92
2018-12-10T12:47:05.817Z,2.01
2018-12-10T12:49:33.231Z,2.39
2018-12-10T12:52:00.716Z,2.66
2018-12-10T12:54:28.138Z,2.78
2018-12-10T12:56:55.545Z,2.73
2018-12-10T12:59:22.959Z,2.47
2018-12-10T13:01:50.343Z,2.37
2018-12-10T13:04:17.744Z,2.22
2018-12-10T13:06:45.103Z,2.28
2018-12-10T13:09:12.557Z,2.25
2018-12-10T13:11:39.913Z,2.15
2018-12-10T13:14:07.363Z,2.05
2018-12-10T13:16:34.738Z,2.07
2018-12-10T13:19:02.151Z,2.05
2018-12-10T13:21:29.485Z,2.10
2018-12-10T13:23:56.904Z,2.00
2018-12-10T13:26:24.277Z,2.09
2018-12-10T13:28:51.750Z,1.93
2018-12-10T13:31:19.212Z,1.79
2018-12-10T13:33:46.578Z,1.66
2018-12-10T13:36:13.980Z,1.72
2018-12-10T13:38:41.327Z,1.83
2018-12-10T13:41:08.797Z,1.87
2018-12-10T13:43:36.153Z,1.98
2018-12-10T13:46:03.563Z,2.13
2018-12-10T13:48:30.991Z,2.34
2018-12-10T13:50:58.408Z,2.58
2018-12-10T13:53:25.755Z,2.49
2018-12-10T13:55:53.154Z,2.38
2018-12-10T13:58:20.494Z,2.26
2018-12-10T14:00:51.036Z,2.24
2018-12-10T14:03:17.597Z,2.36
2018-12-10T14:05:47.546Z,2.41
2018-12-10T14:08:14.353Z,2.70
2018-12-10T14:10:41.798Z,2.62
2018-12-10T14:13:09.111Z,3.16
2018-12-10T14:15:36.519Z,3.72
2018-12-10T14:18:04.096Z,4.63
2018-12-10T14:20:31.511Z,5.14
2018-12-10T14:22:59.729Z,5.68
2018-12-10T14:25:27.453Z,5.97
2018-12-10T14:27:54.893Z,5.84
2018-12-10T14:30:22.489Z,4.77
2018-12-10T14:32:49.910Z,3.87
2018-12-10T14:35:17.250Z,3.39
2018-12-10T14:37:44.730Z,2.95
2018-12-10T14:40:12.633Z,2.57
2018-12-10T14:42:49.474Z,2.32
2018-12-10T14:45:17.101Z,2.15
2018-12-10T14:47:46.642Z,2.02
2018-12-10T14:50:14.065Z,1.98
2018-12-10T14:52:41.439Z,1.86
2018-12-10T14:55:08.870Z,1.80
2018-12-10T14:57:36.285Z,1.75
2018-12-10T15:00:03.999Z,1.63
2018-12-10T15:02:31.350Z,1.59
2018-12-10T15:04:58.764Z,1.63
2018-12-10T15:07:26.133Z,1.57
2018-12-10T15:09:53.538Z,1.60
2018-12-10T15:12:20.928Z,1.49
2018-12-10T15:14:48.323Z,1.48
2018-12-10T15:17:15.675Z,1.51
2018-12-10T15:19:43.060Z,1.51
2018-12-10T15:22:10.446Z,1.46
2018-12-10T15:24:37.864Z,1.46
2018-12-10T15:27:05.222Z,1.47
2018-12-10T15:29:32.634Z,1.46
2018-12-10T15:32:00.038Z,1.44
2018-12-10T15:34:27.384Z,1.44
2018-12-10T15:36:54.784Z,1.43
2018-12-10T15:39:22.186Z,1.48
2018-12-10T15:41:49.585Z,1.44
2018-12-10T15:44:16.973Z,1.47
2018-12-10T15:46:44.403Z,1.38
2018-12-10T15:49:11.741Z,1.33
2018-12-10T15:51:39.138Z,1.34
2018-12-10T15:54:06.484Z,1.28
2018-12-10T15:56:33.880Z,1.33
2018-12-10T15:59:01.309Z,1.33
2018-12-10T16:01:28.769Z,1.31
2018-12-10T16:03:56.131Z,1.30
2018-12-10T16:06:23.525Z,1.26
2018-12-10T16:08:50.911Z,1.26
2018-12-10T16:11:18.369Z,1.28
2018-12-10T16:13:45.791Z,1.40
2018-12-10T16:16:13.197Z,1.41
2018-12-10T16:18:40.649Z,1.36
2018-12-10T16:21:08.016Z,1.45
2018-12-10T16:23:35.465Z,1.50
2018-12-10T16:26:02.824Z,1.47
2018-12-10T16:28:30.235Z,1.54
2018-12-10T16:30:57.846Z,1.56
2018-12-10T16:33:25.279Z,1.54
2018-12-10T16:35:52.929Z,1.39
2018-12-10T16:38:20.340Z,1.34
2018-12-10T16:40:47.701Z,1.04
2018-12-10T16:43:15.125Z,0.84
2018-12-10T16:45:42.664Z,0.81
2018-12-10T16:48:10.080Z,0.75
2018-12-10T16:50:37.502Z,0.65
2018-12-10T16:53:04.915Z,0.56
2018-12-10T16:55:32.340Z,0.53
2018-12-10T16:57:59.678Z,0.49
2018-12-10T17:00:27.044Z,0.46
2018-12-10T17:02:54.517Z,0.46
2018-12-10T17:05:26.475Z,0.44
2018-12-10T17:07:53.877Z,0.51
2018-12-10T17:10:21.306Z,0.55
2018-12-10T17:12:48.720Z,0.51
2018-12-10T17:15:16.177Z,0.49
2018-12-10T17:17:43.655Z,0.55
2018-12-10T17:20:11.079Z,0.58
2018-12-10T17:22:38.534Z,0.57
2018-12-10T17:25:06.391Z,0.57
2018-12-10T17:27:33.850Z,0.55
2018-12-10T17:30:01.207Z,0.56
2018-12-10T17:32:28.596Z,0.59
2018-12-10T17:34:56.011Z,0.55
2018-12-10T17:37:23.527Z,0.57
2018-12-10T17:39:50.927Z,0.56
2018-12-10T17:42:18.402Z,0.57
2018-12-10T17:44:45.794Z,0.58
2018-12-10T17:47:13.249Z,0.62
2018-12-10T17:49:41.006Z,0.69
2018-12-10T17:52:08.550Z,0.72
2018-12-10T17:54:35.914Z,0.76
2018-12-10T18:00:01.767Z,0.70
2018-12-10T18:02:29.182Z,0.67
2018-12-10T18:04:57.194Z,0.67
2018-12-10T18:07:24.613Z,0.64
2018-12-10T18:09:52.000Z,0.62
2018-12-10T18:12:19.421Z,0.67
2018-12-10T18:14:46.845Z,0.68
2018-12-10T18:17:14.257Z,0.71
2018-12-10T18:19:41.664Z,0.68
2018-12-10T18:22:09.030Z,0.70
2018-12-10T18:24:36.378Z,0.70
2018-12-10T18:27:03.967Z,0.71
2018-12-10T18:29:31.400Z,0.67
2018-12-10T18:31:58.803Z,0.65
2018-12-10T18:34:26.272Z,0.71
2018-12-10T18:36:53.737Z,0.69
2018-12-10T18:39:21.206Z,0.76
2018-12-10T18:41:48.662Z,0.76
2018-12-10T18:44:16.107Z,0.72
2018-12-10T18:46:43.523Z,0.72
2018-12-10T18:49:10.926Z,0.70
2018-12-10T18:51:38.332Z,0.69
2018-12-10T18:54:05.771Z,0.74
2018-12-10T18:56:33.168Z,0.77
2018-12-10T18:59:00.637Z,0.84
2018-12-10T19:01:28.016Z,0.82
2018-12-10T19:03:55.398Z,0.82
2018-12-10T19:06:22.921Z,0.76
2018-12-10T19:08:51.416Z,0.80
2018-12-10T19:11:19.112Z,0.89
2018-12-10T19:13:49.932Z,0.91
2018-12-10T19:16:15.953Z,0.96
2018-12-10T19:18:43.322Z,0.96
2018-12-10T19:21:10.776Z,0.93
2018-12-10T19:23:38.848Z,0.92
2018-12-10T19:26:06.362Z,0.88
2018-12-10T19:28:33.800Z,0.88
2018-12-10T19:31:01.290Z,0.82
2018-12-10T19:33:28.722Z,0.81
2018-12-10T19:35:56.117Z,0.81
2018-12-10T19:38:23.510Z,0.80
2018-12-10T19:40:51.038Z,0.81
2018-12-10T19:43:18.417Z,0.85
2018-12-10T19:45:45.891Z,0.83
2018-12-10T19:48:13.373Z,0.78
2018-12-10T19:50:40.762Z,0.72
2018-12-10T19:53:08.186Z,0.74
2018-12-10T19:55:35.601Z,0.67
2018-12-10T19:58:03.044Z,0.58
2018-12-10T20:00:30.496Z,0.44
2018-12-10T20:02:57.910Z,0.34
2018-12-10T20:05:30.981Z,-0.01
2018-12-10T20:07:58.532Z,-0.08
2018-12-10T20:10:26.051Z,-0.18
2018-12-10T20:12:54.178Z,-0.22
2018-12-10T20:15:21.735Z,-0.28
2018-12-10T20:17:49.126Z,-0.35
2018-12-10T20:20:16.723Z,-0.29
2018-12-10T20:22:44.112Z,-0.34
2018-12-10T20:25:11.697Z,-0.36
2018-12-10T20:27:39.126Z,-0.32
2018-12-10T20:30:06.860Z,-0.25
2018-12-10T20:32:34.347Z,-0.30
2018-12-10T20:35:02.540Z,-0.37
2018-12-10T20:37:30.182Z,-0.34
2018-12-10T20:39:57.590Z,-0.28
2018-12-10T20:42:25.698Z,-0.28
2018-12-10T20:44:53.256Z,-0.20
2018-12-10T20:47:20.678Z,-0.25
2018-12-10T20:49:48.133Z,-0.25
2018-12-10T20:52:15.676Z,-0.32
2018-12-10T20:54:43.239Z,-0.30
2018-12-10T20:57:11.919Z,-0.29
2018-12-10T20:59:39.390Z,-0.35
2018-12-10T21:02:06.764Z,-0.45
2018-12-10T21:04:34.221Z,-0.44
2018-12-10T21:07:01.642Z,-0.40
2018-12-10T21:09:29.105Z,-0.42
2018-12-10T21:11:56.518Z,-0.40
2018-12-10T21:14:23.940Z,-0.35
2018-12-10T21:16:51.324Z,-0.32
2018-12-10T21:19:18.781Z,-0.31
2018-12-10T21:21:46.229Z,-0.29
2018-12-10T21:24:13.721Z,-0.29
2018-12-10T21:26:41.274Z,-0.31
2018-12-10T21:29:08.647Z,-0.27
2018-12-10T21:31:36.078Z,-0.27
2018-12-10T21:34:03.697Z,-0.25
2018-12-10T21:36:31.117Z,-0.22
2018-12-10T21:38:58.566Z,-0.25
2018-12-10T21:41:26.769Z,-0.26
2018-12-10T21:43:54.741Z,-0.19
2018-12-10T21:46:23.147Z,-0.20
2018-12-10T21:48:50.808Z,-0.20
2018-12-10T21:51:18.786Z,-0.13
2018-12-10T21:53:46.374Z,-0.15
2018-12-10T21:56:14.193Z,-0.17
2018-12-10T21:58:42.387Z,-0.24
2018-12-10T22:01:10.122Z,-0.16
2018-12-10T22:03:37.677Z,-0.19
2018-12-10T22:06:05.862Z,-0.16
2018-12-10T22:08:33.242Z,-0.20
2018-12-10T22:11:00.631Z,-0.16
2018-12-10T22:13:28.503Z,-0.13
2018-12-10T22:15:56.861Z,-0.09
2018-12-10T22:18:24.316Z,-0.15
2018-12-10T22:20:51.741Z,-0.18
2018-12-10T22:23:19.728Z,-0.21
2018-12-10T22:25:47.158Z,-0.26
2018-12-10T22:28:14.578Z,-0.26
2018-12-10T22:30:41.956Z,-0.32
2018-12-10T22:33:09.353Z,-0.33
2018-12-10T22:35:38.281Z,-0.49
2018-12-10T22:38:05.671Z,-0.53
2018-12-10T22:40:33.296Z,-0.54
2018-12-10T22:43:00.802Z,-0.70
2018-12-10T22:45:28.189Z,-0.83
2018-12-10T22:47:55.611Z,-0.84
2018-12-10T22:50:23.024Z,-0.82
2018-12-10T22:52:50.462Z,-0.82
2018-12-10T22:55:17.852Z,-0.79
2018-12-10T22:57:45.273Z,-0.78
2018-12-10T23:00:12.652Z,-0.76
2018-12-10T23:02:40.162Z,-0.66
2018-12-10T23:05:07.801Z,-0.60
2018-12-10T23:07:35.203Z,-0.57
2018-12-10T23:10:03.177Z,-0.57
2018-12-10T23:12:30.583Z,-0.53
2018-12-10T23:14:58.019Z,-0.46
2018-12-10T23:17:25.421Z,-0.45
2018-12-10T23:19:52.841Z,-0.52
2018-12-10T23:22:20.259Z,-0.54
2018-12-10T23:24:47.589Z,-0.61
2018-12-10T23:27:15.072Z,-0.70
2018-12-10T23:29:42.485Z,-0.74
2018-12-10T23:32:09.907Z,-0.79
2018-12-10T23:34:37.288Z,-0.88
2018-12-10T23:37:04.652Z,-0.78
2018-12-10T23:39:33.230Z,-0.81
2018-12-10T23:42:00.698Z,-0.81
2018-12-10T23:44:33.772Z,-0.80
2018-12-10T23:47:01.176Z,-0.70
2018-12-10T23:49:28.583Z,-0.76
2018-12-10T23:51:56.028Z,-0.67
2018-12-10T23:54:23.424Z,-0.69
2018-12-10T23:56:50.782Z,-0.74
2018-12-10T23:59:18.222Z,-0.68
